• Join FlightAware (Why Join?)
  • Login
  • US Flag 
05:09AM EDT


 

Airport Tracker/Info


-or-


 

Live Flight TrackerFlight Track Log ✈ OPT332 ✈ 17-Sep-2013 ✈ KIXD - KOMA

Flight Track Log - Related Links

Times and Time Zones

All times are in EDT time to prevent confusion due to time zone crossing. See the OPT332 flight status page for this flight to view local times or setup timezone preferences in your user account.

Time Position Orientation Groundspeed Altitude Reporting Facility
EDT Latitude Longitude Course Direction KTS MPH feet Rate Location/Type
10:45AM 38.8167 -94.9000 236° Southwest 159 183 2,100  Level Kansas City TRACON
10:45AM 38.8097 -94.9131 236° Southwest 164 189 3,300 2,400 Climbing Kansas City Center
10:46AM 38.8369 -94.9647 304° West 193 222 6,000 1,860 Climbing Kansas City Center
10:52AM 39.2987 -94.9647 304° West 350 403 15,800 1,440 Climbing FlightAware ADS-B
10:53AM 39.4080 -94.9732 357° North 367 422 15,800  Level FlightAware ADS-B
10:53AM 39.4655 -94.9777 357° North 369 425 15,800  Level FlightAware ADS-B
10:54AM 39.5182 -94.9819 356° North 370 426 15,800  Level FlightAware ADS-B
10:55AM 39.6349 -94.9913 356° North 373 429 15,800  Level FlightAware ADS-B
10:56AM 39.6877 -94.9955 356° North 371 427 15,800  Level FlightAware ADS-B
10:56AM 39.7390 -94.9996 356° North 371 427 15,800  Level FlightAware ADS-B
10:57AM 39.8584 -95.0092 356° North 370 426 15,800  Level FlightAware ADS-B
10:58AM 39.9129 -95.0136 356° North 371 427 15,800  Level FlightAware ADS-B
10:58AM 39.9649 -95.0178 356° North 371 427 15,800  Level FlightAware ADS-B
10:59AM 40.0818 -95.0273 356° North 370 426 15,800  Level FlightAware ADS-B
11:00AM 40.1339 -95.0316 356° North 371 427 15,800  Level FlightAware ADS-B
11:00AM 40.1873 -95.0359 356° North 370 426 15,800  Level FlightAware ADS-B
11:02AM 40.3052 -95.0455 356° North 370 426 15,800  Level FlightAware ADS-B
11:02AM 40.3570 -95.0498 356° North 370 426 15,800  Level FlightAware ADS-B
11:03AM 40.4093 -95.0540 357° North 371 427 15,800  Level FlightAware ADS-B
11:04AM 40.5271 -95.0638 356° North 370 426 15,800  Level FlightAware ADS-B
11:04AM 40.5791 -95.0680 356° North 370 426 15,800  Level FlightAware ADS-B
11:05AM 40.6307 -95.0723 356° North 371 427 15,800  Level FlightAware ADS-B
11:06AM 40.7502 -95.0861 355° North 368 423 15,800  Level FlightAware ADS-B
11:06AM 40.7624 -95.0919 340° North 367 422 15,800  Level FlightAware ADS-B
11:06AM 40.7719 -95.0978 335° Northwest 366 421 15,800  Level FlightAware ADS-B
11:06AM 40.7843 -95.1076 329° Northwest 365 420 15,800  Level FlightAware ADS-B
11:06AM 40.7979 -95.1217 322° Northwest 364 419 15,800  Level FlightAware ADS-B
11:07AM 40.8074 -95.1342 315° West 364 419 15,800 -1,440 Level FlightAware ADS-B
11:08AM 40.8986 -95.2849 309° West 340 391 13,500 -1,560 Descending FlightAware ADS-B
11:09AM 40.9281 -95.3341 308° West 336 387 12,700 -1,620 Descending FlightAware ADS-B
11:09AM 40.9573 -95.3829 308° West 331 381 11,900 -1,680 Descending FlightAware ADS-B
11:10AM 41.0261 -95.4807 313° West 292 336 9,900 -1,800 Descending FlightAware ADS-B
11:10AM 41.0392 -95.4912 329° Northwest 284 327 9,500 -2,040 Descending FlightAware ADS-B
11:11AM 41.0563 -95.5046 329° Northwest 278 320 9,000 -1,980 Descending FlightAware ADS-B
11:11AM 41.0729 -95.5178 329° Northwest 275 316 8,500 -1,980 Descending FlightAware ADS-B
11:11AM 41.0898 -95.5314 329° Northwest 273 314 8,000 -1,800 Descending FlightAware ADS-B
11:12AM 41.1676 -95.5956 328° Northwest 275 316 5,900 -1,500 Descending FlightAware ADS-B
11:13AM 41.1846 -95.6098 328° Northwest 276 318 5,800 -240 Descending FlightAware ADS-B
11:13AM 41.2030 -95.6252 328° Northwest 277 319 5,800  Level FlightAware ADS-B
11:13AM 41.2198 -95.6393 328° Northwest 277 319 5,800  Level FlightAware ADS-B
11:14AM 41.2368 -95.6537 328° Northwest 277 319 5,800 -480 Level FlightAware ADS-B
11:15AM 41.3051 -95.7213 323° Northwest 272 313 5,200 -780 Descending FlightAware ADS-B
11:15AM 41.3196 -95.7390 317° Northwest 270 311 4,800 -1,500 Descending FlightAware ADS-B
11:15AM 41.3341 -95.7568 317° Northwest 270 311 4,400 -1,380 Descending FlightAware ADS-B
11:15AM 41.3488 -95.7747 318° Northwest 284 327 4,100 -1,020 Descending FlightAware ADS-B
11:16AM 41.3636 -95.7930 317° Northwest 286 329 3,900 -240 Descending FlightAware ADS-B
11:17AM 41.4256 -95.8691 317° Northwest 260 299 3,800 -120 Descending FlightAware ADS-B
11:17AM 41.4429 -95.8903 317° Northwest 258 297 3,800  Level FlightAware ADS-B
11:18AM 41.4698 -95.9234 317° Northwest 258 297 3,800 -600 Level FlightAware ADS-B
11:19AM 41.4568 -96.0142 259° West 191 220 2,800 -720 Descending FlightAware ADS-B
11:19AM 41.4527 -96.0139 177° South 185 213 2,800  Level FlightAware ADS-B
11:19AM 41.4389 -96.0111 171° South 174 200 2,800  Level FlightAware ADS-B
11:20AM 41.4284 -96.0088 171° South 163 188 2,800  Level FlightAware ADS-B
11:20AM 41.4258 -96.0075 159° South 162 186 2,800  Level FlightAware ADS-B
11:20AM 41.4223 -96.0049 151° Southeast 161 185 2,800  Level FlightAware ADS-B
11:20AM 41.4202 -96.0029 144° Southeast 160 184 2,800  Level FlightAware ADS-B
11:20AM 41.4178 -96.0003 141° Southeast 159 183 2,800  Level FlightAware ADS-B
11:20AM 41.4115 -95.9937 142° Southeast 153 176 2,800 -360 Level FlightAware ADS-B
11:21AM 41.3774 -95.9611 144° Southeast 119 137 2,400 -480 Descending FlightAware ADS-B
11:21AM 41.3691 -95.9534 145° Southeast 113 130 2,200 -780 Descending FlightAware ADS-B
11:22AM 41.3659 -95.9505 146° Southeast 111 128 2,100 -600 Descending FlightAware ADS-B
11:22AM 41.3600 -95.9449 145° Southeast 112 129 2,000 -540 Descending FlightAware ADS-B
11:22AM 41.3517 -95.9367 143° Southeast 113 130 1,800 -660 Descending FlightAware ADS-B
11:23AM 41.3193 -95.9060 145° Southeast 112 129 1,000 -660 Descending FlightAware ADS-B
11:24AM 41.3072 -95.8944 144° Southeast 86 99 -1,980 Descending FlightAware ADS-B